Time;durP1;ratioP1;P1;durP2;ratioP2;P2;SDS_P1;SDS_P2;PMS_P1;PMS_P2;Temp;Humidity;BMP_temperature;BMP_pressure;BME280_temperature;BME280_humidity;BME280_pressure;Samples;Min_cycle;Max_cycle;Signal;HPM_P1;HPM_P2
2022/11/27 00:01:14;;;;;;;18.83;10.90;;;;;;;6.38;61.37;100788.19;5033351;28;20033;-42
2022/11/27 00:03:40;;;;;;;18.98;11.02;;;;;;;6.16;61.37;100788.59;5033218;28;20033;-42
2022/11/27 00:06:10;;;;;;;19.15;10.48;;;;;;;6.09;61.49;100793.63;5033014;28;20500;-42
2022/11/27 00:08:36;;;;;;;19.52;10.32;;;;;;;5.87;62.05;100795.69;5033414;28;20037;-42
2022/11/27 00:11:06;;;;;;;18.92;10.63;;;;;;;6.23;60.83;100789.69;5033814;28;20025;-43
2022/11/27 00:13:32;;;;;;;19.27;10.50;;;;;;;6.12;61.08;100788.06;5032637;28;20025;-42
2022/11/27 00:15:57;;;;;;;20.35;10.68;;;;;;;6.23;60.79;100800.25;5033016;28;20026;-42
2022/11/27 00:18:22;;;;;;;17.17;9.93;;;;;;;6.30;59.74;100801.28;5033060;28;20030;-42
2022/11/27 00:20:48;;;;;;;16.58;10.32;;;;;;;6.44;60.46;100805.25;5033277;28;20048;-42
2022/11/27 00:23:13;;;;;;;22.17;11.27;;;;;;;6.22;60.90;100799.41;5032402;28;20487;-42
2022/11/27 00:25:39;;;;;;;19.75;11.25;;;;;;;6.18;61.45;100798.03;5032971;28;20038;-42
2022/11/27 00:28:04;;;;;;;19.80;10.77;;;;;;;6.30;61.50;100797.81;5032970;28;20016;-43
2022/11/27 00:30:29;;;;;;;20.08;10.05;;;;;;;6.30;61.27;100796.00;5033154;28;20021;-42
2022/11/27 00:32:55;;;;;;;19.05;11.38;;;;;;;6.63;60.10;100794.50;5032423;28;20347;-43
2022/11/27 00:35:20;;;;;;;23.38;11.48;;;;;;;6.56;59.98;100808.50;5032379;28;20013;-43
2022/11/27 00:37:46;;;;;;;16.88;10.35;;;;;;;6.28;61.06;100803.25;5032928;28;20025;-43
2022/11/27 00:40:11;;;;;;;18.02;10.77;;;;;;;6.22;61.17;100804.69;5032988;28;20026;-41
2022/11/27 00:42:36;;;;;;;20.20;11.63;;;;;;;6.54;60.14;100805.19;5033169;28;20036;-41
2022/11/27 00:45:02;;;;;;;20.98;11.30;;;;;;;6.71;59.55;100804.34;5032576;28;20106;-41
2022/11/27 00:47:28;;;;;;;20.70;11.88;;;;;;;6.64;59.63;100814.72;5032813;28;20381;-42
2022/11/27 00:49:53;;;;;;;21.73;11.55;;;;;;;6.64;59.79;100819.16;5032774;28;20064;-42
2022/11/27 00:52:19;;;;;;;19.05;11.90;;;;;;;6.50;59.96;100824.97;5032534;28;20029;-42
2022/11/27 00:54:44;;;;;;;24.10;11.77;;;;;;;6.42;60.82;100831.84;5032569;28;20048;-42
2022/11/27 00:57:10;;;;;;;22.35;11.75;;;;;;;6.53;60.20;100830.81;5031966;28;20377;-43
2022/11/27 00:59:35;;;;;;;24.58;11.60;;;;;;;6.53;60.38;100828.16;5032408;28;20105;-43
2022/11/27 01:02:01;;;;;;;19.30;11.23;;;;;;;6.39;60.94;100826.84;5032905;28;20017;-43
2022/11/27 01:04:26;;;;;;;21.35;11.65;;;;;;;6.38;61.07;100824.38;5032434;28;20382;-42
2022/11/27 01:06:51;;;;;;;22.20;11.50;;;;;;;6.09;61.37;100828.00;5031929;28;20036;-42
2022/11/27 01:09:17;;;;;;;21.13;11.80;;;;;;;6.14;61.46;100819.63;5032466;28;20097;-42
2022/11/27 01:11:43;;;;;;;19.92;11.50;;;;;;;6.07;61.58;100811.47;5032034;28;20440;-42
2022/11/27 01:14:14;;;;;;;22.35;12.38;;;;;;;6.21;61.58;100804.84;5032196;28;20439;-42
2022/11/27 01:16:40;;;;;;;19.27;11.82;;;;;;;6.21;61.46;100805.69;5031414;28;20100;-42
2022/11/27 01:19:05;;;;;;;19.77;12.13;;;;;;;6.24;60.79;100801.91;5032005;28;20101;-42
2022/11/27 01:21:33;;;;;;;20.95;12.90;;;;;;;6.19;61.54;100804.19;5032172;28;20047;-42
2022/11/27 01:23:59;;;;;;;23.65;12.70;;;;;;;6.41;60.80;100801.06;5032179;28;20492;-43
2022/11/27 01:26:25;;;;;;;25.95;13.32;;;;;;;6.15;61.36;100798.34;5031604;28;20091;-42
2022/11/27 01:28:52;;;;;;;20.05;12.57;;;;;;;6.17;60.70;100806.97;5031476;28;20033;-42
2022/11/27 01:31:21;;;;;;;22.95;12.75;;;;;;;6.26;60.38;100799.94;5031981;28;20112;-42
2022/11/27 01:33:50;;;;;;;20.83;12.52;;;;;;;6.54;59.71;100810.47;5032143;28;20025;-42
2022/11/27 01:36:16;;;;;;;20.77;12.52;;;;;;;6.01;61.06;100809.41;5031677;28;20029;-42
2022/11/27 01:38:42;;;;;;;21.88;12.55;;;;;;;5.97;60.99;100806.22;5031253;28;20036;-43
2022/11/27 01:41:12;;;;;;;24.20;13.35;;;;;;;6.09;60.39;100801.56;5031778;28;20039;-42
2022/11/27 01:43:49;;;;;;;23.70;11.90;;;;;;;6.02;60.77;100798.69;5030801;28;20029;-42
2022/11/27 01:46:41;;;;;;;21.15;11.05;;;;;;;6.15;60.92;100806.28;5031320;28;20048;-42
2022/11/27 01:49:09;;;;;;;20.52;11.82;;;;;;;6.01;60.72;100804.94;5031406;28;20040;-42
2022/11/27 01:52:04;;;;;;;20.42;11.40;;;;;;;6.03;60.80;100800.34;5031715;28;20051;-42
2022/11/27 01:54:55;;;;;;;20.50;11.85;;;;;;;6.15;60.31;100808.06;5031511;28;20436;-42
2022/11/27 01:57:37;;;;;;;22.67;11.90;;;;;;;6.12;60.52;100801.28;5031274;28;20423;-42
2022/11/27 02:00:07;;;;;;;19.75;11.95;;;;;;;5.70;61.60;100785.91;5031562;28;20087;-42
2022/11/27 02:02:32;;;;;;;19.88;11.10;;;;;;;6.05;60.72;100795.78;5031556;28;20025;-42
2022/11/27 02:04:58;;;;;;;19.42;11.43;;;;;;;6.06;59.83;100794.78;5031423;28;20448;-42
2022/11/27 02:07:23;;;;;;;21.23;12.55;;;;;;;5.76;61.35;100798.53;5031303;28;20022;-42
2022/11/27 02:09:49;;;;;;;21.25;11.88;;;;;;;5.90;61.26;100806.94;5031302;28;20030;-43
2022/11/27 02:12:23;;;;;;;21.55;11.60;;;;;;;6.07;60.59;100801.75;5031119;28;20025;-42
2022/11/27 02:14:51;;;;;;;21.77;12.18;;;;;;;6.09;60.65;100800.75;5031522;28;20139;-42
2022/11/27 02:17:29;;;;;;;21.65;12.70;;;;;;;5.94;60.99;100792.44;5031246;28;20029;-42
2022/11/27 02:20:05;;;;;;;23.55;12.73;;;;;;;5.73;61.72;100798.84;5031681;28;20026;-42
2022/11/27 02:22:55;;;;;;;22.08;12.95;;;;;;;6.07;61.13;100800.88;5031038;28;20029;-42
2022/11/27 02:25:50;;;;;;;23.58;13.80;;;;;;;6.22;60.77;100799.41;5031206;28;20088;-42
2022/11/27 02:28:51;;;;;;;20.58;12.85;;;;;;;6.40;60.35;100795.97;5031553;28;20104;-42
2022/11/27 02:31:31;;;;;;;23.42;13.25;;;;;;;6.13;60.88;100795.03;5031293;28;20215;-42
2022/11/27 02:34:09;;;;;;;23.55;13.52;;;;;;;6.15;60.98;100805.44;5031594;28;20033;-42
2022/11/27 02:36:38;;;;;;;24.92;14.15;;;;;;;6.11;60.69;100804.91;5031368;28;20068;-42
2022/11/27 02:39:07;;;;;;;;;;;;;;;5.78;61.81;100808.94;5031641;28;20430;-42
2022/11/27 02:41:46;;;;;;;23.38;13.00;;;;;;;5.85;61.63;100808.22;5031278;28;19909;-42
2022/11/27 02:44:14;;;;;;;22.38;13.35;;;;;;;6.00;61.12;100808.59;5031291;28;20037;-42
2022/11/27 02:46:41;;;;;;;24.92;14.02;;;;;;;6.00;60.96;100800.66;5031145;28;20414;-42
2022/11/27 02:49:12;;;;;;;24.92;13.52;;;;;;;6.07;60.94;100795.59;5031460;28;20030;-42
2022/11/27 02:51:43;;;;;;;23.05;12.95;;;;;;;6.02;60.91;100797.88;5031386;28;20048;-43
2022/11/27 02:54:14;;;;;;;23.58;13.65;;;;;;;6.02;60.91;100816.38;5030744;28;20469;-42
2022/11/27 02:56:42;;;;;;;23.65;13.20;;;;;;;5.99;61.34;100817.47;5034453;28;20025;-43
2022/11/27 02:59:11;;;;;;;26.55;13.07;;;;;;;5.68;62.36;100816.91;5034835;28;20098;-42
2022/11/27 03:01:43;;;;;;;23.88;13.70;;;;;;;5.81;61.77;100813.94;5034927;28;20068;-42
2022/11/27 03:04:14;;;;;;;24.80;13.02;;;;;;;5.85;61.98;100821.41;5034376;28;20057;-42
2022/11/27 03:06:46;;;;;;;23.52;13.10;;;;;;;5.91;61.59;100822.66;5034322;28;20040;-42
2022/11/27 03:09:17;;;;;;;22.17;13.10;;;;;;;5.92;62.20;100813.75;5034892;28;20029;-43
2022/11/27 03:11:44;;;;;;;21.23;12.43;;;;;;;6.03;61.68;100821.50;5034575;28;20029;-43
2022/11/27 03:14:11;;;;;;;24.23;13.55;;;;;;;5.99;62.03;100825.41;5034199;28;20438;-42
2022/11/27 03:16:41;;;;;;;21.75;12.65;;;;;;;5.92;62.10;100824.31;5034362;28;20029;-42
2022/11/27 03:19:29;;;;;;;22.92;12.90;;;;;;;5.72;62.79;100823.56;5034610;28;20076;-42
2022/11/27 03:21:59;;;;;;;19.75;12.05;;;;;;;5.77;62.65;100823.97;5033066;28;20166;-42
2022/11/27 03:24:26;;;;;;;23.65;12.98;;;;;;;6.02;61.29;100824.31;5033933;28;20053;-42
2022/11/27 03:26:53;;;;;;;20.05;12.60;;;;;;;6.20;60.83;100822.50;5034017;28;20109;-42
2022/11/27 03:29:32;;;;;;;20.45;12.00;;;;;;;6.17;60.86;100820.19;5034404;28;20034;-42
2022/11/27 03:31:59;;;;;;;23.15;12.00;;;;;;;6.23;61.23;100822.22;5034074;28;20448;-42
2022/11/27 03:34:26;;;;;;;20.35;11.95;;;;;;;6.23;61.30;100827.50;5034054;28;20033;-42
2022/11/27 03:36:51;;;;;;;20.60;11.68;;;;;;;6.18;60.40;100821.81;5033572;28;20083;-42
2022/11/27 03:39:18;;;;;;;19.63;11.68;;;;;;;6.29;60.41;100825.25;5034263;28;20078;-42
2022/11/27 03:41:54;;;;;;;19.30;11.65;;;;;;;6.38;60.40;100830.47;5033663;28;20100;-42
2022/11/27 03:44:51;;;;;;;20.77;11.68;;;;;;;6.02;61.47;100824.31;5034276;28;20033;-43
2022/11/27 03:47:55;;;;;;;22.02;11.20;;;;;;;6.13;61.35;100828.53;5025367;28;20037;-42
2022/11/27 03:50:47;;;;;;;18.40;11.18;;;;;;;6.32;60.34;100832.88;5011567;28;20482;-41
2022/11/27 03:53:31;;;;;;;19.75;11.27;;;;;;;6.35;61.12;100822.00;5032951;28;20041;-41
2022/11/27 03:56:10;;;;;;;18.65;11.07;;;;;;;6.24;60.43;100820.41;5033366;28;20029;-41
2022/11/27 03:58:51;;;;;;;20.38;11.40;;;;;;;6.20;61.52;100825.16;5033338;28;20029;-42
2022/11/27 04:01:19;;;;;;;19.73;11.65;;;;;;;5.93;61.77;100825.97;5033521;28;20029;-42
2022/11/27 04:03:45;;;;;;;19.27;11.10;;;;;;;6.05;61.63;100829.28;5033458;28;20382;-42
2022/11/27 04:06:11;;;;;;;20.85;11.25;;;;;;;6.08;61.43;100818.41;5032160;28;20024;-41
2022/11/27 04:08:37;;;;;;;17.83;11.05;;;;;;;6.39;60.76;100816.25;5033240;28;20098;-42
2022/11/27 04:11:03;;;;;;;20.45;11.65;;;;;;;6.20;60.96;100809.28;5033286;28;20048;-43
2022/11/27 04:13:28;;;;;;;18.70;10.98;;;;;;;6.30;60.70;100808.41;5033492;28;20080;-43
2022/11/27 04:15:53;;;;;;;19.13;10.70;;;;;;;5.87;61.70;100808.06;5033265;28;20026;-43
2022/11/27 04:18:19;;;;;;;18.05;10.88;;;;;;;6.05;61.36;100802.84;5033052;28;20477;-41
2022/11/27 04:20:44;;;;;;;17.95;11.10;;;;;;;6.09;61.11;100803.38;5033330;28;20079;-41
2022/11/27 04:23:10;;;;;;;18.30;10.75;;;;;;;5.61;62.72;100815.81;5032977;28;20366;-41
2022/11/27 04:25:35;;;;;;;15.80;10.20;;;;;;;5.88;61.89;100815.00;5032979;28;20036;-41
2022/11/27 04:28:00;;;;;;;18.65;10.82;;;;;;;5.98;61.77;100812.38;5032870;28;20167;-42
2022/11/27 04:30:26;;;;;;;19.13;10.65;;;;;;;6.11;61.28;100810.22;5032610;28;20160;-42
2022/11/27 04:32:51;;;;;;;17.75;10.02;;;;;;;6.19;60.91;100812.09;5032803;28;20374;-41
2022/11/27 04:35:17;;;;;;;19.45;10.80;;;;;;;6.17;61.12;100819.31;5032801;28;20053;-41
2022/11/27 04:37:42;;;;;;;17.92;10.43;;;;;;;6.07;61.50;100816.75;5031713;28;20094;-41
2022/11/27 04:40:08;;;;;;;19.13;10.43;;;;;;;6.29;61.01;100817.31;5032480;28;20170;-41
2022/11/27 04:42:34;;;;;;;16.67;10.45;;;;;;;6.22;61.38;100804.69;5032661;28;20029;-42
2022/11/27 04:44:59;;;;;;;16.10;10.23;;;;;;;6.19;61.04;100809.47;5032752;28;20083;-42
2022/11/27 04:47:25;;;;;;;16.35;10.27;;;;;;;5.86;61.90;100817.81;5032402;28;20478;-42
2022/11/27 04:49:50;;;;;;;18.05;10.65;;;;;;;5.85;62.52;100824.06;5032424;28;20021;-41
2022/11/27 04:52:15;;;;;;;17.50;10.27;;;;;;;5.80;62.15;100823.66;5032555;28;20116;-42
2022/11/27 04:54:41;;;;;;;17.15;10.65;;;;;;;5.70;63.02;100824.69;5032046;28;20095;-42
2022/11/27 04:57:06;;;;;;;17.77;10.20;;;;;;;5.73;63.02;100817.31;5032477;28;20041;-42
2022/11/27 04:59:32;;;;;;;17.58;10.43;;;;;;;6.02;62.19;100827.78;5032322;28;20129;-42
2022/11/27 05:01:57;;;;;;;17.10;10.38;;;;;;;5.87;62.45;100818.63;5032106;28;20508;-42
2022/11/27 05:04:23;;;;;;;19.25;11.18;;;;;;;5.72;63.01;100823.56;5032776;28;20058;-42
2022/11/27 05:06:48;;;;;;;16.90;10.25;;;;;;;5.85;62.46;100824.06;5032123;28;20026;-42
2022/11/27 05:09:16;;;;;;;21.70;11.50;;;;;;;5.90;62.40;100825.44;5032155;28;20026;-42
2022/11/27 05:11:41;;;;;;;18.50;10.95;;;;;;;5.87;62.02;100831.84;5032317;28;20036;-42
2022/11/27 05:14:21;;;;;;;21.73;11.23;;;;;;;6.02;62.00;100837.50;5032279;28;20025;-42
2022/11/27 05:16:50;;;;;;;20.75;11.15;;;;;;;5.88;61.87;100829.06;5031865;28;20036;-42
2022/11/27 05:19:18;;;;;;;19.45;11.57;;;;;;;5.86;61.69;100824.88;5032200;28;20496;-42
2022/11/27 05:21:44;;;;;;;19.50;11.25;;;;;;;5.74;62.42;100829.53;5032328;28;20033;-42
2022/11/27 05:24:10;;;;;;;21.27;11.82;;;;;;;5.74;62.23;100841.91;5032023;28;20506;-42
2022/11/27 05:26:37;;;;;;;19.17;11.30;;;;;;;5.94;62.57;100832.94;5031888;28;20037;-41
2022/11/27 05:29:02;;;;;;;19.90;11.55;;;;;;;5.77;62.67;100834.53;5032290;28;20032;-41
2022/11/27 05:31:28;;;;;;;17.10;10.82;;;;;;;5.75;63.18;100848.84;5032127;28;20104;-42
2022/11/27 05:33:53;;;;;;;19.08;11.52;;;;;;;5.74;63.48;100847.19;5031736;28;20112;-42
2022/11/27 05:36:18;;;;;;;17.40;10.55;;;;;;;5.43;64.01;100840.34;5031618;28;20509;-42
2022/11/27 05:38:44;;;;;;;18.17;10.98;;;;;;;5.62;63.26;100838.63;5031885;28;20048;-42
2022/11/27 05:41:10;;;;;;;16.85;10.75;;;;;;;5.91;62.64;100838.50;5032200;28;20025;-42
2022/11/27 05:43:35;;;;;;;23.38;11.05;;;;;;;5.74;63.23;100836.63;5031519;28;20029;-42
2022/11/27 05:46:06;;;;;;;61.42;32.17;;;;;;;5.98;62.66;100834.34;5031555;28;20048;-42
2022/11/27 05:48:32;;;;;;;50.05;26.58;;;;;;;5.94;63.10;100843.50;5031779;28;20486;-42
2022/11/27 05:50:58;;;;;;;47.40;27.48;;;;;;;5.85;62.76;100839.91;5031887;28;20393;-42
2022/11/27 05:53:23;;;;;;;43.17;21.83;;;;;;;5.58;63.88;100847.78;5031902;28;20025;-42
2022/11/27 05:55:48;;;;;;;25.35;14.80;;;;;;;5.77;63.94;100857.47;5031101;28;20029;-42
2022/11/27 05:58:14;;;;;;;24.50;11.82;;;;;;;5.71;63.94;100863.31;5031714;28;20450;-41
2022/11/27 06:00:39;;;;;;;20.25;11.55;;;;;;;5.75;63.46;100873.47;5031908;28;20117;-41
2022/11/27 06:03:05;;;;;;;19.17;11.35;;;;;;;5.76;63.49;100869.00;5031963;28;20056;-42
2022/11/27 06:05:30;;;;;;;20.58;12.15;;;;;;;5.73;63.25;100867.50;5031184;28;20053;-43
2022/11/27 06:07:56;;;;;;;20.05;11.82;;;;;;;5.63;64.65;100864.88;5031700;28;20501;-42
2022/11/27 06:10:21;;;;;;;19.85;11.05;;;;;;;5.69;64.09;100866.09;5031752;28;20075;-42
2022/11/27 06:12:46;;;;;;;17.52;10.70;;;;;;;5.84;61.85;100872.59;5031570;28;20028;-42
2022/11/27 06:15:12;;;;;;;18.83;10.90;;;;;;;6.00;61.97;100879.13;5031090;28;20096;-42
2022/11/27 06:17:37;;;;;;;19.95;10.38;;;;;;;6.03;62.16;100879.63;5031710;28;20117;-43
2022/11/27 06:20:03;;;;;;;21.70;11.45;;;;;;;5.96;61.78;100883.84;5031785;28;20022;-42
2022/11/27 06:22:30;;;;;;;18.40;10.60;;;;;;;5.72;62.59;100870.28;5031559;28;20448;-42
2022/11/27 06:24:55;;;;;;;46.70;25.38;;;;;;;5.81;62.68;100870.25;5031269;28;20056;-42
2022/11/27 06:27:21;;;;;;;22.50;12.30;;;;;;;5.83;62.24;100862.19;5030968;28;20021;-42
2022/11/27 06:29:46;;;;;;;19.13;11.38;;;;;;;6.08;61.42;100876.56;5032479;28;20025;-42
2022/11/27 06:32:12;;;;;;;18.48;11.57;;;;;;;5.91;61.80;100870.22;5035353;28;20033;-42
2022/11/27 06:34:37;;;;;;;20.27;11.43;;;;;;;5.93;61.62;100875.34;5035302;28;20068;-42
2022/11/27 06:37:02;;;;;;;19.50;11.68;;;;;;;5.91;62.34;100872.84;5033675;28;20405;-42
2022/11/27 06:39:28;;;;;;;21.55;12.40;;;;;;;5.86;62.08;100872.44;5033878;28;20025;-42
2022/11/27 06:41:53;;;;;;;21.23;12.38;;;;;;;5.91;62.67;100878.13;5035017;28;20060;-42
2022/11/27 06:44:19;;;;;;;19.33;12.05;;;;;;;6.17;61.42;100878.34;5033998;28;20069;-42
2022/11/27 06:46:44;;;;;;;22.77;11.52;;;;;;;5.96;62.32;100872.44;5034586;28;20033;-42
2022/11/27 06:49:10;;;;;;;19.65;12.32;;;;;;;5.97;62.32;100877.56;5034463;28;20037;-43
2022/11/27 06:51:35;;;;;;;22.83;12.88;;;;;;;5.96;62.50;100880.34;5034669;28;20076;-42
2022/11/27 06:54:01;;;;;;;20.48;11.95;;;;;;;6.07;63.28;100874.88;5035008;28;20100;-43
2022/11/27 06:56:29;;;;;;;24.50;13.02;;;;;;;6.10;62.56;100882.53;5034080;28;20086;-43
2022/11/27 06:58:57;;;;;;;20.67;12.45;;;;;;;6.17;61.79;100874.84;5034576;28;20034;-42
2022/11/27 07:01:24;;;;;;;22.00;12.50;;;;;;;6.21;60.75;100881.50;5034880;28;20397;-41
2022/11/27 07:03:50;;;;;;;23.20;13.23;;;;;;;6.34;61.27;100873.22;5033847;28;20031;-42
2022/11/27 07:06:19;;;;;;;21.85;13.43;;;;;;;6.26;60.92;100872.16;5033617;28;20029;-42
2022/11/27 07:08:45;;;;;;;25.05;14.60;;;;;;;6.48;60.34;100875.38;5033197;28;20079;-42
2022/11/27 07:11:17;;;;;;;24.42;14.25;;;;;;;6.65;60.00;100871.06;5033320;28;20061;-43
2022/11/27 07:13:42;;;;;;;29.38;17.13;;;;;;;6.53;60.50;100873.13;5033093;28;20037;-42
2022/11/27 07:16:10;;;;;;;21.50;12.77;;;;;;;6.75;59.77;100879.75;5033126;28;20033;-42
2022/11/27 07:18:39;;;;;;;20.67;12.35;;;;;;;6.63;59.97;100871.22;5033023;28;20625;-42
2022/11/27 07:21:04;;;;;;;23.13;13.73;;;;;;;6.84;60.05;100870.09;5031467;28;20071;-42
2022/11/27 07:23:30;;;;;;;25.60;11.77;;;;;;;6.63;59.58;100878.34;5034277;28;20127;-43
2022/11/27 07:25:55;;;;;;;73.88;37.25;;;;;;;6.94;59.52;100880.59;5034298;28;20087;-43
2022/11/27 07:28:20;;;;;;;29.38;16.50;;;;;;;7.37;58.17;100874.50;5034550;28;20036;-43
2022/11/27 07:30:54;;;;;;;16.58;10.27;;;;;;;7.16;58.49;100880.13;5033952;28;20045;-43
2022/11/27 07:33:19;;;;;;;18.70;10.38;;;;;;;6.91;59.17;100880.91;5034077;28;20109;-42
2022/11/27 07:35:44;;;;;;;16.85;10.20;;;;;;;7.08;58.60;100880.03;5034107;28;20102;-42
2022/11/27 07:38:10;;;;;;;16.73;10.13;;;;;;;7.17;58.52;100881.78;5033864;28;20159;-42
2022/11/27 07:40:37;;;;;;;17.10;10.27;;;;;;;6.79;60.66;100875.81;5033416;28;20477;-42
2022/11/27 07:43:02;;;;;;;19.42;11.05;;;;;;;7.17;59.74;100879.13;5033492;28;20032;-42
2022/11/27 07:45:28;;;;;;;20.83;11.43;;;;;;;7.17;59.11;100876.50;5033638;28;20025;-42
2022/11/27 07:47:53;;;;;;;19.08;10.85;;;;;;;7.16;59.39;100874.00;5033887;28;20385;-43
2022/11/27 07:50:18;;;;;;;18.17;10.75;;;;;;;7.02;59.85;100888.59;5034075;28;20064;-42
2022/11/27 07:52:44;;;;;;;17.13;10.43;;;;;;;7.23;58.85;100883.84;5033458;28;20035;-43
2022/11/27 07:55:09;;;;;;;25.38;14.38;;;;;;;7.20;59.67;100885.97;5033488;28;20043;-43
2022/11/27 07:57:35;;;;;;;19.63;11.32;;;;;;;7.32;58.61;100870.66;5033470;28;20481;-43
2022/11/27 08:00:00;;;;;;;17.88;10.23;;;;;;;7.49;58.20;100877.72;5033238;28;20037;-43
2022/11/27 08:02:25;;;;;;;20.17;10.50;;;;;;;7.22;58.99;100876.03;5032969;28;20041;-42
2022/11/27 08:04:51;;;;;;;17.17;10.40;;;;;;;7.57;58.38;100885.72;5033526;28;20472;-43
2022/11/27 08:07:16;;;;;;;16.35;10.52;;;;;;;7.86;57.53;100876.59;5033182;28;20014;-42
2022/11/27 08:09:42;;;;;;;16.30;10.32;;;;;;;7.85;58.34;100868.81;5033406;28;20029;-43
2022/11/27 08:12:07;;;;;;;25.00;13.63;;;;;;;7.90;57.16;100880.63;5033382;28;20082;-42
2022/11/27 08:14:33;;;;;;;19.13;12.13;;;;;;;7.82;57.63;100876.09;5032896;28;20030;-42
2022/11/27 08:16:58;;;;;;;20.20;12.18;;;;;;;7.97;57.21;100878.97;5033287;28;20146;-43
2022/11/27 08:19:24;;;;;;;17.98;10.75;;;;;;;7.87;57.36;100874.78;5033371;28;20581;-42
2022/11/27 08:21:49;;;;;;;16.85;10.50;;;;;;;8.00;57.02;100872.53;5033467;28;20025;-42
2022/11/27 08:24:15;;;;;;;16.73;10.73;;;;;;;8.03;56.68;100872.19;5032665;28;20555;-42
2022/11/27 08:26:40;;;;;;;18.35;10.73;;;;;;;8.04;56.75;100871.22;5032769;28;20033;-42
2022/11/27 08:29:06;;;;;;;23.95;13.75;;;;;;;8.44;55.78;100867.09;5032951;28;20033;-43
2022/11/27 08:31:32;;;;;;;23.23;13.13;;;;;;;8.99;54.07;100874.47;5032661;28;20035;-42
2022/11/27 08:33:58;;;;;;;21.10;12.52;;;;;;;8.82;54.75;100872.78;5033087;28;20052;-43
2022/11/27 08:36:26;;;;;;;15.27;9.75;;;;;;;8.51;55.79;100867.25;5032492;28;20406;-43
2022/11/27 08:38:52;;;;;;;16.25;10.30;;;;;;;8.65;54.55;100858.66;5033132;28;20049;-43
2022/11/27 08:41:18;;;;;;;16.17;10.05;;;;;;;8.61;55.16;100860.00;5032786;28;20033;-44
2022/11/27 08:43:43;;;;;;;15.20;10.30;;;;;;;8.68;54.66;100862.81;5032254;28;20026;-45
2022/11/27 08:46:09;;;;;;;16.08;9.95;;;;;;;8.30;56.24;100867.66;5030517;28;20033;-44
2022/11/27 08:48:35;;;;;;;17.75;10.77;;;;;;;8.50;55.49;100865.59;5032055;28;20018;-45
2022/11/27 08:51:09;;;;;;;17.10;10.68;;;;;;;8.76;54.99;100860.19;5032495;28;20028;-45
2022/11/27 08:53:36;;;;;;;19.30;11.02;;;;;;;9.07;54.46;100872.81;5031754;28;20607;-44
2022/11/27 08:56:14;;;;;;;18.80;12.13;;;;;;;8.94;54.35;100865.31;5031756;28;20048;-36
2022/11/27 08:58:39;;;;;;;42.60;21.25;;;;;;;9.05;54.13;100866.84;5032190;28;20025;-37
2022/11/27 09:01:07;;;;;;;21.20;12.25;;;;;;;9.23;53.73;100864.00;5032266;28;20373;-37
2022/11/27 09:03:32;;;;;;;20.52;12.52;;;;;;;9.34;53.55;100856.50;5032402;28;20029;-37
2022/11/27 09:05:57;;;;;;;17.52;11.10;;;;;;;9.41;53.23;100854.00;5031918;28;20022;-37
2022/11/27 09:08:23;;;;;;;18.85;10.73;;;;;;;9.20;53.73;100852.72;5031934;28;20096;-37
2022/11/27 09:10:48;;;;;;;18.52;11.73;;;;;;;9.23;53.75;100859.50;5031860;28;20220;-37
2022/11/27 09:13:14;;;;;;;18.30;11.18;;;;;;;9.24;53.72;100855.88;5032221;28;20025;-36
2022/11/27 09:15:39;;;;;;;17.35;11.30;;;;;;;9.45;53.18;100849.19;5031697;28;20397;-36
2022/11/27 09:18:05;;;;;;;19.48;11.02;;;;;;;9.37;52.86;100845.56;5031058;28;20112;-37
2022/11/27 09:20:30;;;;;;;18.50;11.57;;;;;;;9.49;52.64;100834.56;5031391;28;20518;-36
2022/11/27 09:22:55;;;;;;;19.20;11.38;;;;;;;9.51;52.94;100829.91;5031883;28;20033;-37
2022/11/27 09:25:22;;;;;;;26.33;16.30;;;;;;;9.35;52.81;100831.59;5030915;28;20049;-37
2022/11/27 09:27:47;;;;;;;22.92;12.93;;;;;;;9.37;52.82;100832.28;5031180;28;20033;-38
2022/11/27 09:30:13;;;;;;;23.20;12.82;;;;;;;9.27;53.47;100828.13;5031627;28;20028;-37
2022/11/27 09:32:38;;;;;;;18.65;11.73;;;;;;;9.42;52.68;100820.31;5031411;28;20025;-35
2022/11/27 09:35:04;;;;;;;19.92;11.98;;;;;;;9.37;52.72;100813.66;5031067;28;20025;-36
2022/11/27 09:37:29;;;;;;;16.92;11.88;;;;;;;9.59;52.82;100812.13;5030969;28;20036;-37
2022/11/27 09:39:55;;;;;;;18.25;12.18;;;;;;;9.55;52.75;100816.09;5031446;28;20060;-37
2022/11/27 09:42:51;;;;;;;20.02;11.95;;;;;;;9.70;51.95;100802.94;5030772;28;20029;-36
2022/11/27 09:45:17;;;;;;;19.77;10.93;;;;;;;9.96;51.13;100797.34;5030806;28;20033;-37
2022/11/27 09:47:48;;;;;;;42.08;23.52;;;;;;;9.85;51.78;100795.06;5030560;28;20464;-37
2022/11/27 09:50:20;;;;;;;23.85;13.80;;;;;;;10.62;62.89;100790.81;5030781;28;20039;-37
2022/11/27 09:52:56;;;;;;;16.85;10.88;;;;;;;11.00;59.33;100790.84;5031410;28;20104;-37
2022/11/27 09:55:30;;;;;;;15.43;10.25;;;;;;;11.30;58.43;100784.53;5031302;28;20107;-37
2022/11/27 09:58:05;;;;;;;14.57;9.73;;;;;;;11.65;56.00;100752.84;5031098;28;20036;-37
2022/11/27 10:00:30;;;;;;;16.98;10.57;;;;;;;11.97;49.62;100773.97;5031255;28;20104;-37
2022/11/27 10:02:56;;;;;;;17.77;10.80;;;;;;;11.95;50.64;100767.97;5031777;28;20028;-37
2022/11/27 10:05:32;;;;;;;17.65;10.57;;;;;;;12.18;53.81;100763.31;5030684;28;20040;-36
2022/11/27 10:08:16;;;;;;;16.30;10.82;;;;;;;12.50;47.28;100766.50;5031233;28;20026;-37
2022/11/27 10:10:56;;;;;;;17.20;10.65;;;;;;;12.71;51.26;100758.47;5030898;28;20164;-36
2022/11/27 10:13:59;;;;;;;18.27;11.07;;;;;;;13.20;50.37;100761.31;5031221;28;20033;-36
2022/11/27 10:16:35;;;;;;;17.50;10.50;;;;;;;12.95;45.47;100758.28;5030841;28;20045;-37
2022/11/27 10:19:16;;;;;;;16.58;10.65;;;;;;;12.16;48.05;100757.34;5031174;28;20029;-44
2022/11/27 10:22:05;;;;;;;;;;;;;;;12.48;44.47;100752.53;5031333;28;20068;-43
2022/11/27 10:24:44;;;;;;;17.95;11.05;;;;;;;12.04;44.56;100740.19;5026963;28;20389;-45
2022/11/27 10:27:23;;;;;;;16.08;10.82;;;;;;;11.68;45.66;100755.13;5029936;28;20407;-45
2022/11/27 10:29:54;;;;;;;16.15;10.65;;;;;;;11.54;46.20;100734.66;5030386;28;20055;-44
2022/11/27 10:32:28;;;;;;;15.88;10.73;;;;;;;11.24;46.81;100750.63;5029795;28;20036;-44
2022/11/27 10:34:53;;;;;;;18.20;10.32;;;;;;;11.30;46.35;100746.41;5030416;28;20029;-44
2022/11/27 10:37:29;;;;;;;16.52;10.93;;;;;;;10.86;46.50;100732.03;5029991;28;20059;-44
2022/11/27 10:40:22;;;;;;;15.65;9.90;;;;;;;10.65;46.86;100730.06;5030180;28;20108;-43
2022/11/27 10:43:08;;;;;;;14.95;9.20;;;;;;;10.57;47.70;100722.97;5029943;28;20392;-44
2022/11/27 10:45:44;;;;;;;15.38;9.52;;;;;;;10.60;47.61;100723.63;5029900;28;20045;-43
2022/11/27 10:48:10;;;;;;;17.92;11.57;;;;;;;10.94;46.50;100707.97;5029328;28;20047;-43
2022/11/27 10:50:36;;;;;;;15.73;10.50;;;;;;;11.04;46.78;100701.56;5030083;28;20025;-44
2022/11/27 10:53:06;;;;;;;16.98;11.30;;;;;;;11.25;46.37;100699.00;5029811;28;20113;-44
2022/11/27 10:55:47;;;;;;;;;;;;;;;11.27;46.10;100694.31;5029959;28;20053;-43
2022/11/27 10:58:40;;;;;;;15.75;9.32;;;;;;;11.33;46.14;100695.44;5029748;28;19920;-43
2022/11/27 11:01:09;;;;;;;14.98;9.35;;;;;;;11.77;44.97;100691.84;5030428;28;20052;-43
2022/11/27 11:03:34;;;;;;;13.27;9.63;;;;;;;11.70;44.33;100693.59;5030221;28;20022;-43
2022/11/27 11:06:14;;;;;;;14.07;9.48;;;;;;;12.03;43.98;100686.00;5029018;28;20113;-44
2022/11/27 11:08:40;;;;;;;14.70;9.00;;;;;;;12.40;42.95;100673.41;5030272;28;20534;-43
2022/11/27 11:11:07;;;;;;;14.98;8.55;;;;;;;12.27;43.49;100681.28;5029916;28;20117;-47
2022/11/27 11:13:54;;;;;;;13.80;8.30;;;;;;;12.23;43.53;100674.69;5030017;28;20442;-44
2022/11/27 11:16:29;;;;;;;12.23;8.13;;;;;;;12.16;42.41;100666.63;5031194;28;20055;-44
2022/11/27 11:18:55;;;;;;;14.43;8.43;;;;;;;12.15;44.05;100661.47;5032330;28;20045;-43
2022/11/27 11:21:28;;;;;;;11.85;7.72;;;;;;;12.09;42.31;100665.75;5032168;28;20029;-44
2022/11/27 11:24:12;;;;;;;13.82;8.23;;;;;;;12.29;42.56;100663.25;5032515;28;20049;-43
2022/11/27 11:26:46;;;;;;;10.63;7.65;;;;;;;12.47;41.88;100658.28;5033148;28;20039;-43